Time;durP1;ratioP1;P1;durP2;ratioP2;P2;SDS_P1;SDS_P2;PMS_P1;PMS_P2;Temp;Humidity;BMP_temperature;BMP_pressure;BME280_temperature;BME280_humidity;BME280_pressure;Samples;Min_cycle;Max_cycle;Signal;HPM_P1;HPM_P2
2021/07/28 00:01:20;;;;;;;;;;;25.90;55.00;;;;;;1522873;76;741;-59
2021/07/28 00:03:22;;;;;;;;;;;26.00;55.20;;;;;;1511358;76;1145;-57
2021/07/28 00:05:24;;;;;;;;;;;25.90;54.40;;;;;;1518527;76;738;-59
2021/07/28 00:07:26;;;;;;;;;;;25.90;54.40;;;;;;1526338;76;721;-57
2021/07/28 00:09:28;;;;;;;;;;;26.00;54.80;;;;;;1516324;76;761;-58
2021/07/28 00:11:30;;;;;;;;;;;25.90;54.30;;;;;;1516336;76;873;-58
2021/07/28 00:13:32;;;;;;;;;;;26.00;54.70;;;;;;1525111;76;1129;-59
2021/07/28 00:15:34;;;;;;;;;;;25.90;54.40;;;;;;1519948;76;771;-55
2021/07/28 00:17:39;;;;;;;;;;;26.00;55.10;;;;;;1523873;77;1938;-59
2021/07/28 00:19:52;;;;;;;;;;;25.90;54.50;;;;;;1520607;76;1642;-60
2021/07/28 00:24:03;;;;;;;;;;;25.90;54.20;;;;;;1523402;76;1679;-59
2021/07/28 00:26:05;;;;;;;;;;;25.90;54.40;;;;;;1508565;76;947;-58
2021/07/28 00:28:06;;;;;;;;;;;26.00;54.80;;;;;;1506298;76;736;-56
2021/07/28 00:30:09;;;;;;;;;;;25.90;54.20;;;;;;1515568;76;755;-58
2021/07/28 00:32:11;;;;;;;;;;;26.00;54.50;;;;;;1517788;76;1153;-56
2021/07/28 00:34:12;;;;;;;;;;;26.00;54.40;;;;;;1518729;76;751;-56
2021/07/28 00:36:14;;;;;;;;;;;26.00;54.20;;;;;;1523830;76;734;-60
2021/07/28 00:38:16;;;;;;;;;;;25.90;53.70;;;;;;1513918;76;1923;-60
2021/07/28 00:40:18;;;;;;;;;;;25.90;53.90;;;;;;1521584;76;778;-57
2021/07/28 00:42:20;;;;;;;;;;;25.90;53.80;;;;;;1520200;76;1150;-56
2021/07/28 00:44:22;;;;;;;;;;;25.90;53.90;;;;;;1517610;76;769;-59
2021/07/28 00:46:24;;;;;;;;;;;25.90;53.90;;;;;;1510782;77;613;-58
2021/07/28 00:48:26;;;;;;;;;;;25.90;54.00;;;;;;1519690;76;761;-55
2021/07/28 00:50:27;;;;;;;;;;;25.90;54.00;;;;;;1518968;76;805;-59
2021/07/28 00:52:29;;;;;;;;;;;25.90;53.90;;;;;;1523534;76;1116;-58
2021/07/28 00:54:31;;;;;;;;;;;25.90;53.80;;;;;;1518980;76;808;-59
2021/07/28 00:56:33;;;;;;;;;;;25.90;53.60;;;;;;1514297;76;879;-56
2021/07/28 00:58:35;;;;;;;;;;;25.90;53.60;;;;;;1522084;76;1977;-59
2021/07/28 01:00:37;;;;;;;;;;;25.90;53.60;;;;;;1520937;76;701;-58
2021/07/28 01:02:39;;;;;;;;;;;25.90;53.60;;;;;;1521562;76;1151;-58
2021/07/28 01:04:41;;;;;;;;;;;25.90;53.60;;;;;;1520207;76;773;-56
2021/07/28 01:06:43;;;;;;;;;;;25.90;53.60;;;;;;1524307;76;793;-59
2021/07/28 01:08:44;;;;;;;;;;;25.90;53.60;;;;;;1527293;76;749;-59
2021/07/28 01:10:46;;;;;;;;;;;25.90;53.70;;;;;;1521014;76;679;-59
2021/07/28 01:12:52;;;;;;;;;;;25.90;53.60;;;;;;1523240;76;1151;-56
2021/07/28 01:14:53;;;;;;;;;;;25.80;53.50;;;;;;1512337;76;1695;-57
2021/07/28 01:16:55;;;;;;;;;;;25.90;53.30;;;;;;1525909;76;837;-58
2021/07/28 01:18:59;;;;;;;;;;;25.80;53.20;;;;;;1516533;76;1903;-59
2021/07/28 01:21:01;;;;;;;;;;;25.90;53.20;;;;;;1524315;76;818;-59
2021/07/28 01:23:04;;;;;;;;;;;25.90;53.20;;;;;;1514826;76;1136;-59
2021/07/28 01:25:06;;;;;;;;;;;25.90;53.40;;;;;;1512835;76;819;-60
2021/07/28 01:27:08;;;;;;;;;;;25.90;53.40;;;;;;1522616;76;722;-60
2021/07/28 01:29:11;;;;;;;;;;;25.90;53.30;;;;;;1520993;76;733;-60
2021/07/28 01:31:14;;;;;;;;;;;25.90;53.40;;;;;;1513248;76;1276;-59
2021/07/28 01:33:16;;;;;;;;;;;25.90;53.40;;;;;;1515087;76;1140;-58
2021/07/28 01:35:18;;;;;;;;;;;25.80;53.30;;;;;;1519188;76;776;-58
2021/07/28 01:37:20;;;;;;;;;;;25.90;53.20;;;;;;1524942;76;730;-59
2021/07/28 01:39:21;;;;;;;;;;;25.80;53.10;;;;;;1516831;76;1947;-59
2021/07/28 01:41:23;;;;;;;;;;;25.90;53.10;;;;;;1523892;76;795;-58
2021/07/28 01:43:27;;;;;;;;;;;25.80;53.30;;;;;;1512552;76;1079;-57
2021/07/28 01:45:28;;;;;;;;;;;25.90;53.40;;;;;;1520747;76;660;-59
2021/07/28 01:47:30;;;;;;;;;;;25.80;53.50;;;;;;1518909;76;792;-60
2021/07/28 01:49:32;;;;;;;;;;;25.80;53.50;;;;;;1527034;76;739;-60
2021/07/28 01:51:34;;;;;;;;;;;25.90;53.50;;;;;;1522853;76;722;-58
2021/07/28 01:53:36;;;;;;;;;;;25.80;53.50;;;;;;1514431;76;1167;-58
2021/07/28 01:55:38;;;;;;;;;;;25.80;53.50;;;;;;1522991;76;729;-56
2021/07/28 01:57:40;;;;;;;;;;;25.90;53.40;;;;;;1526062;76;765;-57
2021/07/28 01:59:42;;;;;;;;;;;25.90;53.30;;;;;;1516784;76;1939;-59
2021/07/28 02:01:43;;;;;;;;;;;25.80;53.20;;;;;;1517947;76;1100;-60
2021/07/28 02:03:45;;;;;;;;;;;25.90;53.10;;;;;;1513114;76;717;-59
2021/07/28 02:05:47;;;;;;;;;;;25.90;53.00;;;;;;1516265;76;758;-59
2021/07/28 02:07:49;;;;;;;;;;;25.80;53.00;;;;;;1518920;76;795;-60
2021/07/28 02:09:51;;;;;;;;;;;25.90;53.10;;;;;;1517206;76;711;-57
2021/07/28 02:11:53;;;;;;;;;;;25.80;53.40;;;;;;1516844;76;1123;-57
2021/07/28 02:13:55;;;;;;;;;;;25.80;53.30;;;;;;1516214;76;781;-60
2021/07/28 02:15:57;;;;;;;;;;;25.80;53.40;;;;;;1523723;76;802;-58
2021/07/28 02:17:59;;;;;;;;;;;25.90;53.50;;;;;;1515516;76;700;-57
2021/07/28 02:20:00;;;;;;;;;;;25.90;53.40;;;;;;1512309;76;1950;-59
2021/07/28 02:22:02;;;;;;;;;;;25.90;53.30;;;;;;1521116;76;1233;-60
2021/07/28 02:24:05;;;;;;;;;;;25.90;53.20;;;;;;1516180;76;692;-58
2021/07/28 02:26:06;;;;;;;;;;;25.90;53.30;;;;;;1520369;76;814;-61
2021/07/28 02:28:08;;;;;;;;;;;25.90;53.10;;;;;;1521271;76;683;-59
2021/07/28 02:30:11;;;;;;;;;;;25.90;53.00;;;;;;1523736;76;740;-58
2021/07/28 02:32:13;;;;;;;;;;;25.80;53.30;;;;;;1527214;76;1160;-58
2021/07/28 02:34:15;;;;;;;;;;;25.90;53.20;;;;;;1518442;76;615;-58
2021/07/28 02:36:16;;;;;;;;;;;25.80;53.10;;;;;;1512646;76;748;-57
2021/07/28 02:38:18;;;;;;;;;;;25.80;53.00;;;;;;1512618;76;784;-58
2021/07/28 02:40:20;;;;;;;;;;;25.70;53.10;;;;;;1516690;76;1944;-60
2021/07/28 02:42:22;;;;;;;;;;;25.80;52.90;;;;;;1524583;76;1148;-61
2021/07/28 02:44:24;;;;;;;;;;;25.90;52.90;;;;;;1524019;76;697;-57
2021/07/28 02:46:26;;;;;;;;;;;25.80;52.90;;;;;;1523764;76;768;-59
2021/07/28 02:48:28;;;;;;;;;;;25.80;53.00;;;;;;1516802;76;764;-60
2021/07/28 02:50:30;;;;;;;;;;;25.80;53.10;;;;;;1525809;76;663;-58
2021/07/28 02:52:32;;;;;;;;;;;25.70;53.00;;;;;;1523034;76;1140;-57
2021/07/28 02:54:33;;;;;;;;;;;25.80;52.90;;;;;;1518450;76;779;-57
2021/07/28 02:56:35;;;;;;;;;;;25.80;52.90;;;;;;1525847;76;762;-60
2021/07/28 02:58:37;;;;;;;;;;;25.70;52.80;;;;;;1513291;76;1945;-59
2021/07/28 03:00:39;;;;;;;;;;;25.80;52.80;;;;;;1513527;76;675;-59
2021/07/28 03:02:41;;;;;;;;;;;25.80;52.80;;;;;;1515871;76;1144;-59
2021/07/28 03:04:43;;;;;;;;;;;25.70;52.80;;;;;;1526216;76;772;-57
2021/07/28 03:06:45;;;;;;;;;;;25.70;52.80;;;;;;1509693;76;740;-59
2021/07/28 03:08:47;;;;;;;;;;;25.80;52.90;;;;;;1525641;76;674;-59
2021/07/28 03:10:49;;;;;;;;;;;25.70;52.90;;;;;;1523197;76;762;-58
2021/07/28 03:12:51;;;;;;;;;;;25.80;53.00;;;;;;1523173;76;1139;-58
2021/07/28 03:14:54;;;;;;;;;;;25.70;53.10;;;;;;1515934;76;788;-60
2021/07/28 03:16:56;;;;;;;;;;;25.70;53.10;;;;;;1512151;76;792;-59
2021/07/28 03:18:58;;;;;;;;;;;25.70;53.10;;;;;;1514183;76;1940;-61
2021/07/28 03:20:59;;;;;;;;;;;25.80;53.10;;;;;;1517995;76;808;-58
2021/07/28 03:23:01;;;;;;;;;;;25.80;53.20;;;;;;1512100;76;1163;-57
2021/07/28 03:25:03;;;;;;;;;;;25.80;53.10;;;;;;1523787;76;717;-60
2021/07/28 03:27:05;;;;;;;;;;;25.80;53.20;;;;;;1518343;76;726;-59
2021/07/28 03:29:07;;;;;;;;;;;25.80;53.20;;;;;;1513469;76;722;-59
2021/07/28 03:31:09;;;;;;;;;;;25.80;53.30;;;;;;1516350;76;784;-61
2021/07/28 03:33:11;;;;;;;;;;;25.80;53.30;;;;;;1524246;76;1159;-59
2021/07/28 03:35:13;;;;;;;;;;;25.70;53.30;;;;;;1522585;76;745;-59
2021/07/28 03:37:15;;;;;;;;;;;25.80;53.30;;;;;;1523457;76;735;-58
2021/07/28 03:39:17;;;;;;;;;;;25.80;53.20;;;;;;1517960;76;1925;-58
2021/07/28 03:41:18;;;;;;;;;;;25.70;53.30;;;;;;1525646;76;765;-56
2021/07/28 03:43:20;;;;;;;;;;;25.80;53.30;;;;;;1524470;76;1103;-59
2021/07/28 03:45:22;;;;;;;;;;;25.70;53.30;;;;;;1521670;76;813;-58
2021/07/28 03:47:25;;;;;;;;;;;25.80;53.40;;;;;;1519198;76;809;-58
2021/07/28 03:49:26;;;;;;;;;;;25.70;53.40;;;;;;1509324;76;691;-60
2021/07/28 03:51:28;;;;;;;;;;;25.80;53.40;;;;;;1524995;76;746;-59
2021/07/28 03:53:30;;;;;;;;;;;25.70;53.40;;;;;;1521628;76;1089;-59
2021/07/28 03:55:32;;;;;;;;;;;25.80;53.50;;;;;;1524381;76;744;-58
2021/07/28 03:57:34;;;;;;;;;;;25.80;53.50;;;;;;1520021;76;768;-58
2021/07/28 03:59:36;;;;;;;;;;;25.80;53.40;;;;;;1524254;76;1925;-56
2021/07/28 04:01:38;;;;;;;;;;;25.70;53.50;;;;;;1524832;76;745;-59
2021/07/28 04:03:39;;;;;;;;;;;25.80;53.50;;;;;;1519686;76;1127;-60
2021/07/28 04:05:41;;;;;;;;;;;25.70;53.60;;;;;;1523747;76;729;-59
2021/07/28 04:07:45;;;;;;;;;;;25.80;53.70;;;;;;1521524;76;806;-57
2021/07/28 04:09:47;;;;;;;;;;;25.80;53.70;;;;;;1512346;76;838;-59
2021/07/28 04:11:49;;;;;;;;;;;25.80;53.70;;;;;;1522082;76;1110;-60
2021/07/28 04:13:51;;;;;;;;;;;25.80;53.80;;;;;;1520335;76;814;-59
2021/07/28 04:15:53;;;;;;;;;;;25.80;53.70;;;;;;1521633;76;722;-58
2021/07/28 04:17:54;;;;;;;;;;;25.80;53.80;;;;;;1527995;76;723;-59
2021/07/28 04:19:56;;;;;;;;;;;25.80;53.80;;;;;;1521644;76;1944;-59
2021/07/28 04:21:58;;;;;;;;;;;25.80;53.70;;;;;;1525034;76;1139;-59
2021/07/28 04:24:00;;;;;;;;;;;25.80;53.80;;;;;;1526919;76;693;-59
2021/07/28 04:26:02;;;;;;;;;;;25.80;53.80;;;;;;1527077;76;770;-60
2021/07/28 04:28:04;;;;;;;;;;;25.70;53.80;;;;;;1526738;76;707;-59
2021/07/28 04:30:06;;;;;;;;;;;25.70;53.70;;;;;;1525745;76;678;-58
2021/07/28 04:32:08;;;;;;;;;;;25.70;53.70;;;;;;1517865;76;1155;-56
2021/07/28 04:34:10;;;;;;;;;;;25.80;53.70;;;;;;1510591;76;737;-56
2021/07/28 04:36:12;;;;;;;;;;;25.80;53.70;;;;;;1527055;76;728;-60
2021/07/28 04:38:14;;;;;;;;;;;25.70;53.70;;;;;;1523378;76;731;-59
2021/07/28 04:40:16;;;;;;;;;;;25.70;53.70;;;;;;1526428;76;1948;-56
2021/07/28 04:42:18;;;;;;;;;;;25.80;53.80;;;;;;1518382;76;1154;-60
2021/07/28 04:44:20;;;;;;;;;;;25.70;53.70;;;;;;1512889;76;920;-59
2021/07/28 04:46:22;;;;;;;;;;;25.70;53.80;;;;;;1522865;76;731;-60
2021/07/28 04:48:24;;;;;;;;;;;25.70;53.80;;;;;;1515684;76;760;-60
2021/07/28 04:50:25;;;;;;;;;;;25.70;53.80;;;;;;1507418;76;800;-60
2021/07/28 04:52:27;;;;;;;;;;;25.70;53.90;;;;;;1519957;76;1135;-59
2021/07/28 04:54:29;;;;;;;;;;;25.70;53.90;;;;;;1511686;76;825;-57
2021/07/28 04:56:31;;;;;;;;;;;25.80;53.80;;;;;;1510329;76;787;-59
2021/07/28 04:58:33;;;;;;;;;;;25.70;53.80;;;;;;1522435;76;908;-58
2021/07/28 05:00:35;;;;;;;;;;;25.70;53.90;;;;;;1509797;76;1949;-56
2021/07/28 05:02:37;;;;;;;;;;;25.70;53.80;;;;;;1520083;77;1115;-60
2021/07/28 05:04:38;;;;;;;;;;;25.70;53.90;;;;;;1519287;76;767;-57
2021/07/28 05:06:41;;;;;;;;;;;25.70;54.10;;;;;;1516423;76;751;-60
2021/07/28 05:08:43;;;;;;;;;;;25.70;54.10;;;;;;1520122;76;730;-60
2021/07/28 05:10:48;;;;;;;;;;;25.70;54.20;;;;;;1511792;76;729;-59
2021/07/28 05:12:49;;;;;;;;;;;25.80;54.10;;;;;;1527048;76;1131;-60
2021/07/28 05:14:51;;;;;;;;;;;25.70;54.00;;;;;;1523666;76;781;-58
2021/07/28 05:16:53;;;;;;;;;;;25.80;53.90;;;;;;1525263;76;777;-58
2021/07/28 05:18:55;;;;;;;;;;;25.80;53.90;;;;;;1513328;76;701;-56
2021/07/28 05:20:57;;;;;;;;;;;25.80;53.90;;;;;;1527745;76;1944;-57
2021/07/28 05:22:59;;;;;;;;;;;25.80;53.90;;;;;;1524316;76;1101;-58
2021/07/28 05:25:01;;;;;;;;;;;25.70;53.90;;;;;;1524749;76;730;-57
2021/07/28 05:27:03;;;;;;;;;;;25.80;53.90;;;;;;1518994;76;733;-57
2021/07/28 05:29:05;;;;;;;;;;;25.70;54.20;;;;;;1520012;76;782;-57
2021/07/28 05:31:07;;;;;;;;;;;25.80;54.20;;;;;;1519126;76;805;-61
2021/07/28 05:33:09;;;;;;;;;;;25.90;54.20;;;;;;1525468;76;1131;-60
2021/07/28 05:35:11;;;;;;;;;;;25.80;54.20;;;;;;1520640;76;705;-60
2021/07/28 05:37:13;;;;;;;;;;;25.90;53.50;;;;;;1524352;76;830;-58
2021/07/28 05:39:15;;;;;;;;;;;25.90;53.10;;;;;;1519940;76;730;-60
2021/07/28 05:41:17;;;;;;;;;;;25.90;52.80;;;;;;1525321;76;1929;-59
2021/07/28 05:43:18;;;;;;;;;;;25.70;52.80;;;;;;1517482;76;1136;-59
2021/07/28 05:45:20;;;;;;;;;;;25.80;52.80;;;;;;1523640;76;767;-58
2021/07/28 05:47:22;;;;;;;;;;;25.70;52.80;;;;;;1515566;76;780;-60
2021/07/28 05:49:24;;;;;;;;;;;25.70;52.90;;;;;;1514876;76;754;-58
2021/07/28 05:51:26;;;;;;;;;;;25.70;52.90;;;;;;1522635;76;749;-60
2021/07/28 05:53:28;;;;;;;;;;;25.70;52.90;;;;;;1517678;76;1123;-61
2021/07/28 05:55:30;;;;;;;;;;;25.70;52.90;;;;;;1515312;76;761;-58
2021/07/28 05:57:32;;;;;;;;;;;25.70;53.00;;;;;;1518757;76;719;-60
2021/07/28 05:59:33;;;;;;;;;;;25.60;53.00;;;;;;1506668;76;759;-58
2021/07/28 06:01:35;;;;;;;;;;;25.60;53.20;;;;;;1524846;76;1933;-58
2021/07/28 06:03:37;;;;;;;;;;;25.70;53.20;;;;;;1523775;76;1101;-59
2021/07/28 06:05:39;;;;;;;;;;;25.70;53.20;;;;;;1515382;77;699;-60
2021/07/28 06:07:41;;;;;;;;;;;25.70;53.20;;;;;;1518933;76;747;-60
2021/07/28 06:09:43;;;;;;;;;;;25.70;53.10;;;;;;1517167;76;823;-59
2021/07/28 06:11:45;;;;;;;;;;;25.60;53.10;;;;;;1513797;76;1139;-58
2021/07/28 06:13:46;;;;;;;;;;;25.60;53.30;;;;;;1513145;76;668;-58
2021/07/28 06:15:48;;;;;;;;;;;25.60;53.30;;;;;;1522163;76;742;-58
2021/07/28 06:17:50;;;;;;;;;;;25.60;53.30;;;;;;1527043;76;800;-58
2021/07/28 06:19:52;;;;;;;;;;;25.60;53.30;;;;;;1525324;76;1940;-58
2021/07/28 06:21:54;;;;;;;;;;;25.60;53.20;;;;;;1525679;76;1122;-60
2021/07/28 06:23:59;;;;;;;;;;;25.50;53.10;;;;;;1516093;77;926;-60
2021/07/28 06:25:59;;;;;;;;;;;25.50;53.20;;;;;;1519544;76;1696;-59
2021/07/28 06:28:01;;;;;;;;;;;25.50;53.20;;;;;;1527228;76;720;-59
2021/07/28 06:30:04;;;;;;;;;;;25.50;53.30;;;;;;1523125;76;744;-58
2021/07/28 06:32:06;;;;;;;;;;;25.50;53.30;;;;;;1524447;76;1131;-60
2021/07/28 06:34:08;;;;;;;;;;;25.40;53.40;;;;;;1519672;76;853;-60
2021/07/28 06:36:09;;;;;;;;;;;25.50;53.40;;;;;;1519775;76;832;-58
2021/07/28 06:38:11;;;;;;;;;;;25.50;53.40;;;;;;1520018;76;814;-62
2021/07/28 06:40:14;;;;;;;;;;;25.40;53.50;;;;;;1510836;76;1935;-60
2021/07/28 06:42:16;;;;;;;;;;;25.40;53.60;;;;;;1521716;76;1137;-58
2021/07/28 06:44:18;;;;;;;;;;;25.30;53.60;;;;;;1513183;76;784;-60
2021/07/28 06:46:20;;;;;;;;;;;25.30;53.50;;;;;;1518414;76;821;-60
2021/07/28 06:48:21;;;;;;;;;;;25.40;53.60;;;;;;1521356;76;709;-61
2021/07/28 06:50:23;;;;;;;;;;;25.40;53.70;;;;;;1522401;76;753;-62
2021/07/28 06:52:25;;;;;;;;;;;25.40;53.70;;;;;;1521441;76;1159;-59
2021/07/28 06:54:27;;;;;;;;;;;25.40;53.70;;;;;;1526127;76;735;-59
2021/07/28 06:56:29;;;;;;;;;;;25.30;53.70;;;;;;1519461;76;833;-58
2021/07/28 06:58:31;;;;;;;;;;;25.40;53.80;;;;;;1513539;76;708;-58
2021/07/28 07:00:33;;;;;;;;;;;25.30;53.80;;;;;;1525179;76;1944;-57
2021/07/28 07:02:35;;;;;;;;;;;25.30;53.80;;;;;;1521561;76;1157;-58
2021/07/28 07:04:37;;;;;;;;;;;25.30;53.80;;;;;;1521906;76;744;-58
2021/07/28 07:06:39;;;;;;;;;;;25.30;53.80;;;;;;1523745;76;878;-61
2021/07/28 07:08:41;;;;;;;;;;;25.30;53.90;;;;;;1520036;76;713;-58
2021/07/28 07:10:43;;;;;;;;;;;25.20;53.90;;;;;;1518068;76;712;-60
2021/07/28 07:12:45;;;;;;;;;;;25.30;54.30;;;;;;1517604;76;1147;-61
2021/07/28 07:14:47;;;;;;;;;;;25.30;54.20;;;;;;1522312;76;742;-59
2021/07/28 07:16:49;;;;;;;;;;;25.30;54.20;;;;;;1527053;76;722;-60
2021/07/28 07:18:51;;;;;;;;;;;25.20;54.30;;;;;;1521307;76;786;-58
2021/07/28 07:20:53;;;;;;;;;;;25.20;54.40;;;;;;1521161;76;1930;-59
2021/07/28 07:22:54;;;;;;;;;;;25.30;54.40;;;;;;1525949;76;1116;-57
2021/07/28 07:24:56;;;;;;;;;;;25.20;54.40;;;;;;1524684;76;805;-60
2021/07/28 07:26:58;;;;;;;;;;;25.20;54.40;;;;;;1525420;76;725;-60
2021/07/28 07:29:00;;;;;;;;;;;25.20;54.40;;;;;;1525330;76;981;-61
2021/07/28 07:31:02;;;;;;;;;;;25.10;54.50;;;;;;1519244;76;684;-57
2021/07/28 07:35:24;;;;;;;;;;;25.20;54.50;;;;;;1522508;76;803;-57
2021/07/28 07:37:26;;;;;;;;;;;25.10;54.50;;;;;;1519899;76;821;-59
2021/07/28 07:39:28;;;;;;;;;;;25.10;54.60;;;;;;1545062;73;3020;-60
2021/07/28 07:41:31;;;;;;;;;;;25.10;54.70;;;;;;1539450;75;1952;-62
2021/07/28 07:43:33;;;;;;;;;;;25.10;54.70;;;;;;1500483;76;1154;-61
2021/07/28 07:45:36;;;;;;;;;;;25.00;54.70;;;;;;1534665;76;745;-61
2021/07/28 07:47:38;;;;;;;;;;;25.10;54.70;;;;;;1527178;76;765;-61
2021/07/28 07:49:40;;;;;;;;;;;25.20;54.90;;;;;;1532925;76;813;-62
2021/07/28 07:51:42;;;;;;;;;;;25.10;54.80;;;;;;1529916;76;755;-61
2021/07/28 07:53:44;;;;;;;;;;;25.10;54.90;;;;;;1538107;76;768;-62
2021/07/28 07:55:46;;;;;;;;;;;25.10;54.90;;;;;;1518767;76;777;-62
2021/07/28 07:57:47;;;;;;;;;;;25.10;54.90;;;;;;1522281;76;913;-62
2021/07/28 07:59:49;;;;;;;;;;;25.10;55.00;;;;;;1516217;76;796;-62
2021/07/28 08:01:51;;;;;;;;;;;25.10;54.90;;;;;;1520275;76;1943;-62
2021/07/28 08:03:53;;;;;;;;;;;25.10;54.90;;;;;;1517308;76;788;-62
2021/07/28 08:05:55;;;;;;;;;;;25.10;55.00;;;;;;1511194;76;787;-63
2021/07/28 08:07:57;;;;;;;;;;;25.10;55.00;;;;;;1513625;76;811;-63
2021/07/28 08:09:59;;;;;;;;;;;25.10;55.10;;;;;;1517713;76;745;-62
2021/07/28 08:12:01;;;;;;;;;;;25.10;55.10;;;;;;1518635;76;1138;-62
2021/07/28 08:14:02;;;;;;;;;;;25.10;55.20;;;;;;1520704;76;793;-62
2021/07/28 08:16:11;;;;;;;;;;;25.00;55.20;;;;;;1519803;76;778;-61
2021/07/28 08:18:13;;;;;;;;;;;25.00;55.30;;;;;;1519267;76;781;-62
2021/07/28 08:20:15;;;;;;;;;;;25.00;55.40;;;;;;1515874;76;735;-62
2021/07/28 08:22:17;;;;;;;;;;;25.10;55.30;;;;;;1514301;76;1941;-60
2021/07/28 08:24:19;;;;;;;;;;;25.10;55.30;;;;;;1517184;76;717;-61
2021/07/28 08:26:21;;;;;;;;;;;25.10;55.40;;;;;;1537168;76;664;-61
2021/07/28 08:28:22;;;;;;;;;;;25.00;55.30;;;;;;1525770;76;791;-61
2021/07/28 08:30:24;;;;;;;;;;;25.10;55.30;;;;;;1524738;76;801;-62
2021/07/28 08:32:26;;;;;;;;;;;25.10;55.50;;;;;;1521391;76;1151;-62
2021/07/28 08:34:28;;;;;;;;;;;25.00;55.50;;;;;;1529477;76;781;-63
2021/07/28 08:36:30;;;;;;;;;;;25.00;55.50;;;;;;1523959;76;859;-61
2021/07/28 08:38:32;;;;;;;;;;;25.00;55.60;;;;;;1541601;76;764;-62
2021/07/28 08:40:34;;;;;;;;;;;25.00;55.60;;;;;;1526992;76;744;-61
2021/07/28 08:42:36;;;;;;;;;;;25.00;55.60;;;;;;1513696;76;1137;-61
2021/07/28 08:44:39;;;;;;;;;;;25.00;55.60;;;;;;1520722;76;723;-60
2021/07/28 08:46:40;;;;;;;;;;;25.00;55.60;;;;;;1521066;76;761;-60
2021/07/28 08:48:42;;;;;;;;;;;25.00;55.70;;;;;;1527949;76;752;-60
2021/07/28 08:50:46;;;;;;;;;;;24.90;55.60;;;;;;1532098;76;797;-60
2021/07/28 08:52:48;;;;;;;;;;;24.90;55.70;;;;;;1524241;76;1157;-61
2021/07/28 08:54:50;;;;;;;;;;;25.00;55.80;;;;;;1526809;76;805;-62
2021/07/28 08:56:52;;;;;;;;;;;24.90;55.80;;;;;;1528792;76;711;-62
2021/07/28 08:58:54;;;;;;;;;;;25.00;55.80;;;;;;1528695;76;739;-61
2021/07/28 09:00:56;;;;;;;;;;;25.00;55.90;;;;;;1520923;76;1926;-62
2021/07/28 09:02:57;;;;;;;;;;;25.00;55.90;;;;;;1524937;76;1103;-61
2021/07/28 09:04:59;;;;;;;;;;;25.00;55.90;;;;;;1538587;76;709;-62
2021/07/28 09:07:03;;;;;;;;;;;24.90;55.90;;;;;;1520202;76;681;-61
2021/07/28 09:09:05;;;;;;;;;;;24.90;56.00;;;;;;1538336;76;1838;-61
2021/07/28 09:11:08;;;;;;;;;;;24.90;56.10;;;;;;1512831;76;774;-61
2021/07/28 09:13:10;;;;;;;;;;;24.80;56.20;;;;;;1520800;76;1078;-63
2021/07/28 09:15:15;;;;;;;;;;;24.80;55.90;;;;;;1519911;76;737;-64
2021/07/28 09:17:17;;;;;;;;;;;24.90;56.00;;;;;;1516730;76;1696;-63
2021/07/28 09:19:20;;;;;;;;;;;24.90;55.80;;;;;;1535632;76;1539;-62
2021/07/28 09:21:31;;;;;;;;;;;24.90;55.90;;;;;;1530922;76;2152;-62
2021/07/28 09:23:34;;;;;;;;;;;24.90;56.00;;;;;;1531638;76;1129;-60
2021/07/28 09:25:36;;;;;;;;;;;24.80;55.70;;;;;;1509995;76;1877;-60
2021/07/28 09:27:39;;;;;;;;;;;24.80;55.50;;;;;;1512311;76;700;-61
2021/07/28 09:29:41;;;;;;;;;;;24.80;55.40;;;;;;1517422;76;724;-61
2021/07/28 09:31:44;;;;;;;;;;;24.80;55.40;;;;;;1518282;76;770;-60
2021/07/28 09:33:48;;;;;;;;;;;24.80;55.20;;;;;;1511750;76;785;-60
2021/07/28 09:35:57;;;;;;;;;;;24.80;55.20;;;;;;1516708;76;1116;-60
2021/07/28 09:37:59;;;;;;;;;;;24.80;55.00;;;;;;1511870;76;753;-60
2021/07/28 09:40:01;;;;;;;;;;;24.80;55.00;;;;;;1510182;76;795;-60
2021/07/28 09:42:10;;;;;;;;;;;24.80;54.90;;;;;;1511067;76;1943;-60
2021/07/28 09:44:12;;;;;;;;;;;24.70;55.00;;;;;;1510737;76;723;-60
2021/07/28 09:46:21;;;;;;;;;;;24.80;55.00;;;;;;1534745;75;947;-60
2021/07/28 09:48:24;;;;;;;;;;;24.70;55.10;;;;;;1513960;76;723;-59
2021/07/28 09:50:26;;;;;;;;;;;24.60;55.00;;;;;;1519491;76;1699;-60
2021/07/28 09:52:35;;;;;;;;;;;24.70;55.20;;;;;;1517609;76;1265;-60
2021/07/28 09:54:37;;;;;;;;;;;24.60;55.10;;;;;;1531285;76;689;-61
2021/07/28 09:56:47;;;;;;;;;;;24.70;55.30;;;;;;1523293;76;712;-61
2021/07/28 09:58:49;;;;;;;;;;;24.70;55.50;;;;;;1524342;76;723;-60
2021/07/28 10:00:51;;;;;;;;;;;24.70;55.50;;;;;;1527693;76;747;-61
2021/07/28 10:02:52;;;;;;;;;;;24.70;55.50;;;;;;1520390;76;1933;-60
2021/07/28 10:04:54;;;;;;;;;;;24.70;55.50;;;;;;1524357;75;737;-60
2021/07/28 10:06:56;;;;;;;;;;;24.70;55.70;;;;;;1519486;76;886;-59
2021/07/28 10:08:58;;;;;;;;;;;24.70;55.70;;;;;;1522344;76;1025;-60
2021/07/28 10:11:00;;;;;;;;;;;24.70;55.90;;;;;;1518776;76;725;-61
2021/07/28 10:13:02;;;;;;;;;;;24.70;55.80;;;;;;1518613;76;1080;-60
2021/07/28 10:15:04;;;;;;;;;;;24.70;55.70;;;;;;1520617;76;785;-60
2021/07/28 10:17:06;;;;;;;;;;;24.80;55.70;;;;;;1519333;76;831;-61
2021/07/28 10:19:08;;;;;;;;;;;24.70;55.90;;;;;;1525962;76;781;-60
2021/07/28 10:21:10;;;;;;;;;;;24.70;55.80;;;;;;1500801;77;785;-60
2021/07/28 10:23:12;;;;;;;;;;;24.70;55.80;;;;;;1520724;76;1044;-61
2021/07/28 10:25:14;;;;;;;;;;;24.70;55.90;;;;;;1511183;76;708;-61
2021/07/28 10:27:16;;;;;;;;;;;24.70;56.00;;;;;;1517880;76;798;-61
2021/07/28 10:29:18;;;;;;;;;;;24.70;55.90;;;;;;1513878;76;792;-61
2021/07/28 10:31:20;;;;;;;;;;;24.60;55.90;;;;;;1515959;76;775;-61
2021/07/28 10:33:28;;;;;;;;;;;24.70;56.10;;;;;;1523770;76;1174;-61
2021/07/28 10:35:30;;;;;;;;;;;24.60;56.00;;;;;;1516780;76;628;-61
2021/07/28 10:37:32;;;;;;;;;;;24.60;55.90;;;;;;1516446;76;872;-61
2021/07/28 10:39:51;;;;;;;;;;;24.60;55.80;;;;;;1515053;76;748;-61
2021/07/28 10:41:52;;;;;;;;;;;24.60;55.80;;;;;;1510844;76;1926;-61
2021/07/28 10:44:13;;;;;;;;;;;24.60;55.70;;;;;;1513965;76;736;-61
2021/07/28 10:46:15;;;;;;;;;;;24.60;55.70;;;;;;1524532;76;755;-61
2021/07/28 10:48:35;;;;;;;;;;;24.60;55.80;;;;;;1516050;76;764;-61
2021/07/28 10:50:38;;;;;;;;;;;24.70;56.00;;;;;;1518966;76;729;-63
2021/07/28 10:52:43;;;;;;;;;;;24.70;56.10;;;;;;1517958;76;1188;-63
2021/07/28 10:54:49;;;;;;;;;;;24.70;56.10;;;;;;1529427;76;1510;-63
2021/07/28 10:57:08;;;;;;;;;;;24.60;56.00;;;;;;1524345;76;718;-63
2021/07/28 10:59:29;;;;;;;;;;;24.60;56.00;;;;;;1527851;76;1706;-64
2021/07/28 11:01:52;;;;;;;;;;;24.60;55.80;;;;;;1613504;72;687;-61
2021/07/28 11:03:54;;;;;;;;;;;24.60;55.90;;;;;;1553524;75;683;-66
2021/07/28 11:05:58;;;;;;;;;;;24.60;55.60;;;;;;1533975;76;1348;-63
2021/07/28 11:08:01;;;;;;;;;;;24.60;55.60;;;;;;1549818;75;1761;-61
2021/07/28 11:10:04;;;;;;;;;;;24.60;55.40;;;;;;1547930;75;959;-62
2021/07/28 11:12:08;;;;;;;;;;;24.70;55.50;;;;;;1546012;75;1207;-61
2021/07/28 11:14:10;;;;;;;;;;;24.60;55.50;;;;;;1550300;75;742;-61
2021/07/28 11:16:12;;;;;;;;;;;24.60;55.50;;;;;;1549060;75;765;-61
2021/07/28 11:18:13;;;;;;;;;;;24.60;55.50;;;;;;1552863;75;750;-62
2021/07/28 11:20:29;;;;;;;;;;;24.70;55.60;;;;;;1546402;75;1930;-62
2021/07/28 11:22:31;;;;;;;;;;;24.60;55.50;;;;;;1551276;75;1669;-62
2021/07/28 11:24:33;;;;;;;;;;;24.60;55.50;;;;;;1546197;75;721;-62
2021/07/28 11:26:35;;;;;;;;;;;24.60;55.60;;;;;;1554191;75;716;-62
2021/07/28 11:28:37;;;;;;;;;;;24.70;55.70;;;;;;1554987;75;769;-62
2021/07/28 11:30:39;;;;;;;;;;;24.60;55.50;;;;;;1559442;75;1094;-62
2021/07/28 11:32:41;;;;;;;;;;;24.60;55.50;;;;;;1548197;74;1149;-62
2021/07/28 11:34:44;;;;;;;;;;;24.70;55.70;;;;;;1551341;75;715;-62
2021/07/28 11:36:48;;;;;;;;;;;24.60;55.50;;;;;;1533517;75;2147;-63
2021/07/28 11:38:50;;;;;;;;;;;24.70;55.70;;;;;;1548636;75;1838;-62
2021/07/28 11:40:53;;;;;;;;;;;24.70;55.70;;;;;;1555405;75;2182;-62
2021/07/28 11:42:55;;;;;;;;;;;24.70;55.70;;;;;;1547817;75;1169;-62
2021/07/28 11:44:57;;;;;;;;;;;24.70;55.90;;;;;;1556762;75;774;-63
2021/07/28 11:46:58;;;;;;;;;;;24.60;55.60;;;;;;1561314;75;710;-62
2021/07/28 11:49:02;;;;;;;;;;;24.70;55.80;;;;;;1575488;75;784;-62
2021/07/28 11:51:06;;;;;;;;;;;24.70;55.70;;;;;;1582838;75;2001;-63
2021/07/28 11:53:08;;;;;;;;;;;24.60;55.60;;;;;;1549910;75;1174;-63
2021/07/28 11:55:23;;;;;;;;;;;24.60;55.60;;;;;;1554795;75;783;-63
2021/07/28 11:57:25;;;;;;;;;;;24.70;55.80;;;;;;1550862;75;744;-63
2021/07/28 11:59:32;;;;;;;;;;;24.70;55.80;;;;;;1552095;75;811;-63
2021/07/28 12:01:31;;;;;;;;;;;24.60;55.70;;;;;;1557401;75;1931;-62
2021/07/28 12:03:36;;;;;;;;;;;24.70;55.90;;;;;;1547225;75;1153;-63
2021/07/28 12:05:37;;;;;;;;;;;24.70;55.90;;;;;;1532767;75;1719;-63
2021/07/28 12:07:39;;;;;;;;;;;24.60;55.80;;;;;;1538272;75;899;-63
2021/07/28 12:09:41;;;;;;;;;;;24.70;55.90;;;;;;1539253;75;860;-63
2021/07/28 12:11:48;;;;;;;;;;;24.70;55.90;;;;;;1531072;75;711;-62
2021/07/28 12:13:50;;;;;;;;;;;24.70;55.90;;;;;;1529539;77;782;-63
2021/07/28 12:16:04;;;;;;;;;;;24.70;55.80;;;;;;1541545;75;800;-63